sensor_id;sensor_type;location;lat;lon;timestamp;pressure;altitude;pressure_sealevel;temperature;humidity
34103;BME280;20381;54.498;18.206;2023-03-17T00:01:53;100397.08;;;-0.61;64.10
34103;BME280;20381;54.498;18.206;2023-03-17T00:04:22;100406.50;;;-0.57;64.30
34103;BME280;20381;54.498;18.206;2023-03-17T00:06:49;100393.70;;;-0.54;64.31
34103;BME280;20381;54.498;18.206;2023-03-17T00:09:17;100392.44;;;-0.51;64.40
34103;BME280;20381;54.498;18.206;2023-03-17T00:11:45;100392.06;;;-0.46;64.57
34103;BME280;20381;54.498;18.206;2023-03-17T00:14:12;100381.00;;;-0.42;64.47
34103;BME280;20381;54.498;18.206;2023-03-17T00:16:46;100384.39;;;-0.43;64.48
34103;BME280;20381;54.498;18.206;2023-03-17T00:19:31;100379.28;;;-0.40;64.66
34103;BME280;20381;54.498;18.206;2023-03-17T00:22:00;100382.73;;;-0.38;64.71
34103;BME280;20381;54.498;18.206;2023-03-17T00:24:28;100385.33;;;-0.32;64.90
34103;BME280;20381;54.498;18.206;2023-03-17T00:26:57;100385.35;;;-0.29;64.82
34103;BME280;20381;54.498;18.206;2023-03-17T00:29:24;100386.23;;;-0.27;64.95
34103;BME280;20381;54.498;18.206;2023-03-17T00:31:52;100384.98;;;-0.20;65.06
34103;BME280;20381;54.498;18.206;2023-03-17T00:34:20;100387.16;;;-0.15;65.16
34103;BME280;20381;54.498;18.206;2023-03-17T00:36:48;100394.89;;;-0.12;65.06
34103;BME280;20381;54.498;18.206;2023-03-17T00:39:16;100394.92;;;-0.08;65.25
34103;BME280;20381;54.498;18.206;2023-03-17T00:41:43;100390.69;;;-0.03;65.18
34103;BME280;20381;54.498;18.206;2023-03-17T00:44:10;100394.98;;;0.02;65.10
34103;BME280;20381;54.498;18.206;2023-03-17T00:46:37;100394.55;;;0.02;65.07
34103;BME280;20381;54.498;18.206;2023-03-17T00:49:14;100393.73;;;0.06;65.11
34103;BME280;20381;54.498;18.206;2023-03-17T00:51:47;100392.91;;;0.12;65.26
34103;BME280;20381;54.498;18.206;2023-03-17T00:54:16;100380.52;;;0.14;65.36
34103;BME280;20381;54.498;18.206;2023-03-17T00:56:44;100385.67;;;0.17;65.49
34103;BME280;20381;54.498;18.206;2023-03-17T00:59:39;100388.23;;;0.17;65.42
34103;BME280;20381;54.498;18.206;2023-03-17T01:02:04;100380.53;;;0.17;65.40
34103;BME280;20381;54.498;18.206;2023-03-17T01:04:30;100368.53;;;0.19;65.49
34103;BME280;20381;54.498;18.206;2023-03-17T01:06:59;100376.25;;;0.18;65.52
34103;BME280;20381;54.498;18.206;2023-03-17T01:09:26;100375.40;;;0.17;65.50
34103;BME280;20381;54.498;18.206;2023-03-17T01:11:54;100376.22;;;0.12;65.63
34103;BME280;20381;54.498;18.206;2023-03-17T01:14:21;100370.19;;;0.08;65.61
34103;BME280;20381;54.498;18.206;2023-03-17T01:16:49;100380.42;;;0.02;65.73
34103;BME280;20381;54.498;18.206;2023-03-17T01:19:18;100381.27;;;-0.02;65.77
34103;BME280;20381;54.498;18.206;2023-03-17T01:21:44;100373.11;;;-0.03;65.84
34103;BME280;20381;54.498;18.206;2023-03-17T01:24:11;100373.11;;;-0.08;65.88
34103;BME280;20381;54.498;18.206;2023-03-17T01:26:39;100367.51;;;-0.13;66.00
34103;BME280;20381;54.498;18.206;2023-03-17T01:29:06;100355.11;;;-0.14;66.13
34103;BME280;20381;54.498;18.206;2023-03-17T01:31:33;100359.81;;;-0.13;66.22
34103;BME280;20381;54.498;18.206;2023-03-17T01:34:01;100358.94;;;-0.15;66.31
34103;BME280;20381;54.498;18.206;2023-03-17T01:36:29;100354.20;;;-0.17;66.25
34103;BME280;20381;54.498;18.206;2023-03-17T01:38:55;100358.05;;;-0.17;66.31
34103;BME280;20381;54.498;18.206;2023-03-17T01:41:23;100352.92;;;-0.17;66.45
34103;BME280;20381;54.498;18.206;2023-03-17T01:43:50;100358.95;;;-0.12;66.61
34103;BME280;20381;54.498;18.206;2023-03-17T01:46:27;100343.12;;;-0.12;66.63
34103;BME280;20381;54.498;18.206;2023-03-17T01:49:20;100350.37;;;-0.14;66.52
34103;BME280;20381;54.498;18.206;2023-03-17T01:54:45;100337.52;;;-0.17;66.77
34103;BME280;20381;54.498;18.206;2023-03-17T01:57:18;100341.83;;;-0.16;66.88
34103;BME280;20381;54.498;18.206;2023-03-17T01:59:51;100334.56;;;-0.12;66.76
34103;BME280;20381;54.498;18.206;2023-03-17T02:02:28;100329.41;;;-0.15;66.84
34103;BME280;20381;54.498;18.206;2023-03-17T02:04:57;100327.27;;;-0.14;66.80
34103;BME280;20381;54.498;18.206;2023-03-17T02:07:24;100338.82;;;-0.14;67.14
34103;BME280;20381;54.498;18.206;2023-03-17T02:09:52;100333.28;;;-0.12;67.02
34103;BME280;20381;54.498;18.206;2023-03-17T02:12:21;100331.13;;;-0.11;67.05
34103;BME280;20381;54.498;18.206;2023-03-17T02:14:50;100331.59;;;-0.10;67.19
34103;BME280;20381;54.498;18.206;2023-03-17T02:17:18;100323.45;;;-0.10;67.22
34103;BME280;20381;54.498;18.206;2023-03-17T02:19:47;100317.02;;;-0.11;67.23
34103;BME280;20381;54.498;18.206;2023-03-17T02:22:16;100311.05;;;-0.09;67.59
34103;BME280;20381;54.498;18.206;2023-03-17T02:24:53;100312.34;;;-0.07;67.50
34103;BME280;20381;54.498;18.206;2023-03-17T02:29:57;100311.06;;;-0.06;67.51
34103;BME280;20381;54.498;18.206;2023-03-17T02:32:24;100319.64;;;-0.05;67.74
34103;BME280;20381;54.498;18.206;2023-03-17T02:34:51;100317.52;;;-0.01;67.66
34103;BME280;20381;54.498;18.206;2023-03-17T02:37:18;100317.09;;;-0.02;67.91
34103;BME280;20381;54.498;18.206;2023-03-17T02:39:45;100311.09;;;-0.01;67.74
34103;BME280;20381;54.498;18.206;2023-03-17T02:42:13;100319.67;;;0.01;67.83
34103;BME280;20381;54.498;18.206;2023-03-17T02:44:39;100310.22;;;-0.03;67.84
34103;BME280;20381;54.498;18.206;2023-03-17T02:47:06;100315.36;;;-0.05;67.95
34103;BME280;20381;54.498;18.206;2023-03-17T02:49:33;100307.23;;;-0.04;68.09
34103;BME280;20381;54.498;18.206;2023-03-17T02:52:02;100298.66;;;-0.03;68.11
34103;BME280;20381;54.498;18.206;2023-03-17T02:54:30;100297.42;;;0.00;68.47
34103;BME280;20381;54.498;18.206;2023-03-17T02:57:02;100296.56;;;0.01;68.27
34103;BME280;20381;54.498;18.206;2023-03-17T02:59:29;100291.84;;;-0.01;68.33
34103;BME280;20381;54.498;18.206;2023-03-17T03:01:56;100286.28;;;-0.02;68.63
34103;BME280;20381;54.498;18.206;2023-03-17T03:04:23;100288.44;;;0.00;68.66
34103;BME280;20381;54.498;18.206;2023-03-17T03:06:49;100293.98;;;-0.02;68.61
34103;BME280;20381;54.498;18.206;2023-03-17T03:09:16;100293.55;;;-0.02;68.86
34103;BME280;20381;54.498;18.206;2023-03-17T03:11:43;100295.27;;;-0.02;68.86
34103;BME280;20381;54.498;18.206;2023-03-17T03:14:10;100311.95;;;-0.01;68.94
34103;BME280;20381;54.498;18.206;2023-03-17T03:16:37;100317.11;;;0.04;69.07
34103;BME280;20381;54.498;18.206;2023-03-17T03:19:04;100322.27;;;0.06;68.84
34103;BME280;20381;54.498;18.206;2023-03-17T03:21:31;100314.97;;;0.05;68.93
34103;BME280;20381;54.498;18.206;2023-03-17T03:23:58;100302.57;;;0.03;69.01
34103;BME280;20381;54.498;18.206;2023-03-17T03:26:25;100312.84;;;0.03;69.31
34103;BME280;20381;54.498;18.206;2023-03-17T03:28:52;100304.29;;;0.07;69.29
34103;BME280;20381;54.498;18.206;2023-03-17T03:31:18;100310.29;;;0.06;69.11
34103;BME280;20381;54.498;18.206;2023-03-17T03:33:45;100310.29;;;0.06;69.40
34103;BME280;20381;54.498;18.206;2023-03-17T03:36:11;100306.44;;;0.06;69.51
34103;BME280;20381;54.498;18.206;2023-03-17T03:38:38;100309.83;;;0.05;69.61
34103;BME280;20381;54.498;18.206;2023-03-17T03:41:04;100318.81;;;0.05;69.62
34103;BME280;20381;54.498;18.206;2023-03-17T03:43:32;100319.69;;;0.07;69.77
34103;BME280;20381;54.498;18.206;2023-03-17T03:45:59;100316.27;;;0.08;69.81
34103;BME280;20381;54.498;18.206;2023-03-17T03:48:26;100315.44;;;0.09;69.81
34103;BME280;20381;54.498;18.206;2023-03-17T03:50:57;100322.27;;;0.07;70.04
34103;BME280;20381;54.498;18.206;2023-03-17T03:53:26;100319.72;;;0.09;70.35
34103;BME280;20381;54.498;18.206;2023-03-17T03:55:53;100324.02;;;0.11;70.25
34103;BME280;20381;54.498;18.206;2023-03-17T03:58:20;100310.31;;;0.12;70.22
34103;BME280;20381;54.498;18.206;2023-03-17T04:00:47;100298.75;;;0.12;70.42
34103;BME280;20381;54.498;18.206;2023-03-17T04:03:14;100306.45;;;0.12;70.56
34103;BME280;20381;54.498;18.206;2023-03-17T04:05:41;100309.02;;;0.12;70.60
34103;BME280;20381;54.498;18.206;2023-03-17T04:08:08;100289.75;;;0.09;70.68
34103;BME280;20381;54.498;18.206;2023-03-17T04:10:36;100298.29;;;0.08;70.57
34103;BME280;20381;54.498;18.206;2023-03-17T04:13:02;100292.75;;;0.13;70.67
34103;BME280;20381;54.498;18.206;2023-03-17T04:15:29;100284.63;;;0.12;70.88
34103;BME280;20381;54.498;18.206;2023-03-17T04:17:56;100291.06;;;0.15;70.86
34103;BME280;20381;54.498;18.206;2023-03-17T04:20:22;100288.91;;;0.16;70.81
34103;BME280;20381;54.498;18.206;2023-03-17T04:22:49;100309.48;;;0.18;70.90
34103;BME280;20381;54.498;18.206;2023-03-17T04:25:17;100300.08;;;0.20;70.95
34103;BME280;20381;54.498;18.206;2023-03-17T04:27:43;100289.81;;;0.23;71.01
34103;BME280;20381;54.498;18.206;2023-03-17T04:30:11;100289.38;;;0.24;71.07
34103;BME280;20381;54.498;18.206;2023-03-17T04:32:40;100291.53;;;0.23;71.04
34103;BME280;20381;54.498;18.206;2023-03-17T04:35:10;100282.09;;;0.25;71.21
34103;BME280;20381;54.498;18.206;2023-03-17T04:37:37;100279.54;;;0.28;71.25
34103;BME280;20381;54.498;18.206;2023-03-17T04:40:06;100272.72;;;0.31;71.21
34103;BME280;20381;54.498;18.206;2023-03-17T04:42:35;100270.57;;;0.29;71.38
34103;BME280;20381;54.498;18.206;2023-03-17T04:45:04;100262.43;;;0.30;71.55
34103;BME280;20381;54.498;18.206;2023-03-17T04:47:31;100269.72;;;0.29;71.55
34103;BME280;20381;54.498;18.206;2023-03-17T04:49:58;100272.72;;;0.31;71.57
34103;BME280;20381;54.498;18.206;2023-03-17T04:52:24;100272.70;;;0.30;71.77
34103;BME280;20381;54.498;18.206;2023-03-17T04:54:51;100268.02;;;0.34;71.85
34103;BME280;20381;54.498;18.206;2023-03-17T04:57:20;100269.72;;;0.36;71.79
34103;BME280;20381;54.498;18.206;2023-03-17T04:59:51;100264.18;;;0.37;71.84
34103;BME280;20381;54.498;18.206;2023-03-17T05:02:18;100263.31;;;0.38;72.06
34103;BME280;20381;54.498;18.206;2023-03-17T05:04:45;100257.76;;;0.37;72.07
34103;BME280;20381;54.498;18.206;2023-03-17T05:07:12;100251.31;;;0.35;72.15
34103;BME280;20381;54.498;18.206;2023-03-17T05:09:41;100257.32;;;0.37;72.20
34103;BME280;20381;54.498;18.206;2023-03-17T05:12:09;100263.31;;;0.41;72.24
34103;BME280;20381;54.498;18.206;2023-03-17T05:14:36;100265.47;;;0.43;72.32
34103;BME280;20381;54.498;18.206;2023-03-17T05:17:06;100264.19;;;0.46;72.42
34103;BME280;20381;54.498;18.206;2023-03-17T05:19:33;100268.91;;;0.48;72.33
34103;BME280;20381;54.498;18.206;2023-03-17T05:22:00;100265.06;;;0.51;72.50
34103;BME280;20381;54.498;18.206;2023-03-17T05:24:31;100262.50;;;0.57;72.61
34103;BME280;20381;54.498;18.206;2023-03-17T05:26:59;100262.92;;;0.61;72.56
34103;BME280;20381;54.498;18.206;2023-03-17T05:29:26;100259.94;;;0.63;72.48
34103;BME280;20381;54.498;18.206;2023-03-17T05:31:52;100264.25;;;0.68;72.62
34103;BME280;20381;54.498;18.206;2023-03-17T05:34:19;100269.38;;;0.69;72.55
34103;BME280;20381;54.498;18.206;2023-03-17T05:36:46;100271.52;;;0.73;72.62
34103;BME280;20381;54.498;18.206;2023-03-17T05:39:12;100269.81;;;0.75;72.67
34103;BME280;20381;54.498;18.206;2023-03-17T05:41:39;100271.09;;;0.75;72.65
34103;BME280;20381;54.498;18.206;2023-03-17T05:44:06;100270.25;;;0.77;72.79
34103;BME280;20381;54.498;18.206;2023-03-17T05:46:33;100273.25;;;0.77;72.79
34103;BME280;20381;54.498;18.206;2023-03-17T05:49:00;100264.25;;;0.77;72.82
34103;BME280;20381;54.498;18.206;2023-03-17T05:51:30;100260.81;;;0.78;73.06
34103;BME280;20381;54.498;18.206;2023-03-17T05:53:57;100249.70;;;0.79;73.11
34103;BME280;20381;54.498;18.206;2023-03-17T05:56:24;100254.84;;;0.82;73.11
34103;BME280;20381;54.498;18.206;2023-03-17T05:58:52;100238.98;;;0.85;73.12
34103;BME280;20381;54.498;18.206;2023-03-17T06:01:19;100243.69;;;0.89;73.34
34103;BME280;20381;54.498;18.206;2023-03-17T06:03:46;100235.55;;;0.94;73.31
34103;BME280;20381;54.498;18.206;2023-03-17T06:06:16;100235.56;;;0.99;73.42
34103;BME280;20381;54.498;18.206;2023-03-17T06:08:44;100240.27;;;1.02;73.56
34103;BME280;20381;54.498;18.206;2023-03-17T06:11:12;100232.96;;;1.06;73.63
34103;BME280;20381;54.498;18.206;2023-03-17T06:13:39;100233.41;;;1.14;73.79
34103;BME280;20381;54.498;18.206;2023-03-17T06:16:08;100226.98;;;1.18;73.83
34103;BME280;20381;54.498;18.206;2023-03-17T06:18:37;100230.80;;;1.26;73.94
34103;BME280;20381;54.498;18.206;2023-03-17T06:21:05;100234.22;;;1.37;74.16
34103;BME280;20381;54.498;18.206;2023-03-17T06:23:33;100232.48;;;1.48;74.10
34103;BME280;20381;54.498;18.206;2023-03-17T06:26:01;100241.06;;;1.58;74.12
34103;BME280;20381;54.498;18.206;2023-03-17T06:28:28;100241.03;;;1.64;74.21
34103;BME280;20381;54.498;18.206;2023-03-17T06:30:55;100240.59;;;1.68;74.11
34103;BME280;20381;54.498;18.206;2023-03-17T06:33:22;100248.76;;;1.69;74.18
34103;BME280;20381;54.498;18.206;2023-03-17T06:35:49;100253.03;;;1.70;74.31
34103;BME280;20381;54.498;18.206;2023-03-17T06:38:23;100263.75;;;1.71;74.36
34103;BME280;20381;54.498;18.206;2023-03-17T06:40:49;100259.47;;;1.70;74.37
34103;BME280;20381;54.498;18.206;2023-03-17T06:43:17;100263.33;;;1.70;74.40
34103;BME280;20381;54.498;18.206;2023-03-17T06:45:45;100260.75;;;1.73;74.53
34103;BME280;20381;54.498;18.206;2023-03-17T06:48:11;100257.74;;;1.75;74.52
34103;BME280;20381;54.498;18.206;2023-03-17T06:50:38;100262.44;;;1.82;74.69
34103;BME280;20381;54.498;18.206;2023-03-17T06:53:07;100255.58;;;1.85;74.67
34103;BME280;20381;54.498;18.206;2023-03-17T06:55:33;100265.86;;;1.91;74.77
34103;BME280;20381;54.498;18.206;2023-03-17T06:58:00;100270.99;;;1.94;74.65
34103;BME280;20381;54.498;18.206;2023-03-17T07:00:28;100259.81;;;1.95;74.80
34103;BME280;20381;54.498;18.206;2023-03-17T07:02:55;100252.52;;;1.99;74.79
34103;BME280;20381;54.498;18.206;2023-03-17T07:05:23;100266.67;;;2.03;74.80
34103;BME280;20381;54.498;18.206;2023-03-17T07:07:49;100256.34;;;2.04;74.88
34103;BME280;20381;54.498;18.206;2023-03-17T07:10:17;100259.79;;;2.08;74.91
34103;BME280;20381;54.498;18.206;2023-03-17T07:12:44;100255.45;;;2.13;74.95
34103;BME280;20381;54.498;18.206;2023-03-17T07:15:11;100248.55;;;2.21;75.11
34103;BME280;20381;54.498;18.206;2023-03-17T07:17:38;100245.08;;;2.33;75.20
34103;BME280;20381;54.498;18.206;2023-03-17T07:20:06;100245.39;;;2.51;75.19
34103;BME280;20381;54.498;18.206;2023-03-17T07:22:34;100244.84;;;2.68;75.15
34103;BME280;20381;54.498;18.206;2023-03-17T07:25:00;100241.32;;;2.81;75.12
34103;BME280;20381;54.498;18.206;2023-03-17T07:27:27;100230.92;;;2.90;75.08
34103;BME280;20381;54.498;18.206;2023-03-17T07:29:53;100230.87;;;3.00;75.18
34103;BME280;20381;54.498;18.206;2023-03-17T07:32:20;100224.28;;;3.15;75.00
34103;BME280;20381;54.498;18.206;2023-03-17T07:34:49;100245.24;;;3.28;74.96
34103;BME280;20381;54.498;18.206;2023-03-17T07:37:17;100241.72;;;3.35;74.96
34103;BME280;20381;54.498;18.206;2023-03-17T07:39:47;100237.37;;;3.41;74.85
34103;BME280;20381;54.498;18.206;2023-03-17T07:42:15;100233.36;;;3.56;75.01
34103;BME280;20381;54.498;18.206;2023-03-17T07:44:43;100225.91;;;3.66;74.75
34103;BME280;20381;54.498;18.206;2023-03-17T07:47:10;100232.63;;;3.83;74.97
34103;BME280;20381;54.498;18.206;2023-03-17T07:49:38;100230.55;;;4.11;75.02
34103;BME280;20381;54.498;18.206;2023-03-17T07:52:06;100230.09;;;4.46;74.80
34103;BME280;20381;54.498;18.206;2023-03-17T07:54:33;100223.59;;;4.49;74.28
34103;BME280;20381;54.498;18.206;2023-03-17T07:57:02;100223.95;;;4.53;74.30
34103;BME280;20381;54.498;18.206;2023-03-17T07:59:29;100220.86;;;4.58;74.19
34103;BME280;20381;54.498;18.206;2023-03-17T08:01:56;100195.08;;;5.06;74.22
34103;BME280;20381;54.498;18.206;2023-03-17T08:04:24;100195.08;;;5.06;74.22
34103;BME280;20381;54.498;18.206;2023-03-17T08:06:52;100208.55;;;5.27;73.34
34103;BME280;20381;54.498;18.206;2023-03-17T08:09:19;100204.61;;;5.30;73.46
34103;BME280;20381;54.498;18.206;2023-03-17T08:11:49;100202.41;;;5.31;73.19
34103;BME280;20381;54.498;18.206;2023-03-17T08:14:15;100194.36;;;5.24;72.75
34103;BME280;20381;54.498;18.206;2023-03-17T08:16:42;100187.52;;;5.20;72.83
34103;BME280;20381;54.498;18.206;2023-03-17T08:19:09;100188.81;;;5.20;72.32
34103;BME280;20381;54.498;18.206;2023-03-17T08:21:39;100185.91;;;5.12;71.97
34103;BME280;20381;54.498;18.206;2023-03-17T08:24:05;100183.31;;;5.12;71.69
34103;BME280;20381;54.498;18.206;2023-03-17T08:26:32;100179.02;;;5.13;71.27
34103;BME280;20381;54.498;18.206;2023-03-17T08:28:58;100183.31;;;5.12;71.06
34103;BME280;20381;54.498;18.206;2023-03-17T08:31:26;100177.79;;;5.08;70.28
34103;BME280;20381;54.498;18.206;2023-03-17T08:33:53;100168.02;;;5.00;69.95
34103;BME280;20381;54.498;18.206;2023-03-17T08:36:22;100171.00;;;5.01;69.52
34103;BME280;20381;54.498;18.206;2023-03-17T08:38:49;100163.55;;;5.08;69.45
34103;BME280;20381;54.498;18.206;2023-03-17T08:41:21;100155.98;;;5.22;69.03
34103;BME280;20381;54.498;18.206;2023-03-17T08:43:48;100166.17;;;5.53;69.11
34103;BME280;20381;54.498;18.206;2023-03-17T08:46:25;100148.36;;;6.02;68.15
34103;BME280;20381;54.498;18.206;2023-03-17T08:48:54;100161.38;;;6.19;67.93
34103;BME280;20381;54.498;18.206;2023-03-17T08:51:23;100152.20;;;6.23;67.14
34103;BME280;20381;54.498;18.206;2023-03-17T08:53:52;100157.62;;;6.32;66.59
34103;BME280;20381;54.498;18.206;2023-03-17T08:56:20;100137.18;;;6.73;66.64
34103;BME280;20381;54.498;18.206;2023-03-17T08:58:47;100157.28;;;7.00;65.52
34103;BME280;20381;54.498;18.206;2023-03-17T09:01:18;100149.88;;;7.18;65.18
34103;BME280;20381;54.498;18.206;2023-03-17T09:03:46;100144.22;;;7.19;64.73
34103;BME280;20381;54.498;18.206;2023-03-17T09:06:14;100132.80;;;7.26;64.54
34103;BME280;20381;54.498;18.206;2023-03-17T09:08:42;100138.72;;;7.31;63.31
34103;BME280;20381;54.498;18.206;2023-03-17T09:11:17;100133.10;;;7.30;62.56
34103;BME280;20381;54.498;18.206;2023-03-17T09:13:46;100140.58;;;7.10;62.58
34103;BME280;20381;54.498;18.206;2023-03-17T09:16:15;100148.44;;;6.90;62.32
34103;BME280;20381;54.498;18.206;2023-03-17T09:18:44;100138.58;;;6.69;62.01
34103;BME280;20381;54.498;18.206;2023-03-17T09:21:13;100151.63;;;6.66;62.01
34103;BME280;20381;54.498;18.206;2023-03-17T09:23:40;100158.98;;;6.48;61.49
34103;BME280;20381;54.498;18.206;2023-03-17T09:26:08;100153.94;;;6.42;61.38
34103;BME280;20381;54.498;18.206;2023-03-17T09:28:35;100156.95;;;6.61;61.68
34103;BME280;20381;54.498;18.206;2023-03-17T09:31:08;100154.69;;;7.00;61.17
34103;BME280;20381;54.498;18.206;2023-03-17T09:33:34;100146.25;;;7.08;60.57
34103;BME280;20381;54.498;18.206;2023-03-17T09:36:00;100156.76;;;7.36;60.70
34103;BME280;20381;54.498;18.206;2023-03-17T09:38:27;100146.56;;;7.91;60.01
34103;BME280;20381;54.498;18.206;2023-03-17T09:43:41;100113.76;;;8.43;59.25
34103;BME280;20381;54.498;18.206;2023-03-17T09:49:12;100103.28;;;8.46;58.94
34103;BME280;20381;54.498;18.206;2023-03-17T09:51:43;100109.26;;;8.20;58.21
34103;BME280;20381;54.498;18.206;2023-03-17T09:59:49;100097.34;;;8.81;56.26
34103;BME280;20381;54.498;18.206;2023-03-17T10:02:25;100073.95;;;9.41;56.85
34103;BME280;20381;54.498;18.206;2023-03-17T10:04:55;100073.95;;;9.41;56.85
34103;BME280;20381;54.498;18.206;2023-03-17T10:07:29;100068.43;;;9.37;55.45
34103;BME280;20381;54.498;18.206;2023-03-17T10:10:02;100042.26;;;9.05;54.89
34103;BME280;20381;54.498;18.206;2023-03-17T10:12:56;100045.35;;;8.91;54.11
34103;BME280;20381;54.498;18.206;2023-03-17T10:15:48;100045.35;;;8.91;54.11
34103;BME280;20381;54.498;18.206;2023-03-17T10:18:28;100029.39;;;9.24;54.60
34103;BME280;20381;54.498;18.206;2023-03-17T10:20:59;100046.97;;;9.42;53.61
34103;BME280;20381;54.498;18.206;2023-03-17T10:23:33;100024.53;;;9.14;53.06
34103;BME280;20381;54.498;18.206;2023-03-17T10:26:13;100015.82;;;8.79;52.17
34103;BME280;20381;54.498;18.206;2023-03-17T10:28:36;100015.82;;;8.79;52.17
34103;BME280;20381;54.498;18.206;2023-03-17T10:31:16;100033.52;;;8.94;52.13
34103;BME280;20381;54.498;18.206;2023-03-17T10:33:47;100018.05;;;9.01;51.93
34103;BME280;20381;54.498;18.206;2023-03-17T10:36:16;100027.94;;;9.16;51.89
34103;BME280;20381;54.498;18.206;2023-03-17T10:38:50;100017.94;;;9.51;52.20
34103;BME280;20381;54.498;18.206;2023-03-17T10:41:19;100011.59;;;9.58;51.32
34103;BME280;20381;54.498;18.206;2023-03-17T10:43:48;100004.47;;;9.40;50.55
34103;BME280;20381;54.498;18.206;2023-03-17T10:46:25;100023.50;;;9.18;50.12
34103;BME280;20381;54.498;18.206;2023-03-17T10:48:52;100011.43;;;9.04;50.20
34103;BME280;20381;54.498;18.206;2023-03-17T10:51:26;100025.76;;;9.04;50.29
34103;BME280;20381;54.498;18.206;2023-03-17T10:54:06;100017.81;;;8.84;49.67
34103;BME280;20381;54.498;18.206;2023-03-17T10:56:34;100003.16;;;8.56;49.29
34103;BME280;20381;54.498;18.206;2023-03-17T10:59:20;99998.11;;;8.38;49.38
34103;BME280;20381;54.498;18.206;2023-03-17T11:01:53;99990.75;;;8.38;49.53
34103;BME280;20381;54.498;18.206;2023-03-17T11:04:38;99990.86;;;8.35;48.59
34103;BME280;20381;54.498;18.206;2023-03-17T11:07:13;99994.54;;;8.54;48.68
34103;BME280;20381;54.498;18.206;2023-03-17T11:09:49;99982.16;;;8.86;48.78
34103;BME280;20381;54.498;18.206;2023-03-17T11:12:28;99957.98;;;9.51;48.81
34103;BME280;20381;54.498;18.206;2023-03-17T11:15:12;99957.98;;;9.51;48.81
34103;BME280;20381;54.498;18.206;2023-03-17T11:17:53;99981.58;;;9.92;48.66
34103;BME280;20381;54.498;18.206;2023-03-17T11:20:45;99980.09;;;10.60;49.08
34103;BME280;20381;54.498;18.206;2023-03-17T11:26:19;99958.95;;;11.52;48.63
34103;BME280;20381;54.498;18.206;2023-03-17T11:29:23;99967.00;;;11.94;48.12
34103;BME280;20381;54.498;18.206;2023-03-17T11:32:15;99977.00;;;12.03;47.33
34103;BME280;20381;54.498;18.206;2023-03-17T11:38:22;99975.80;;;11.82;45.92
34103;BME280;20381;54.498;18.206;2023-03-17T11:44:05;99965.50;;;12.75;45.29
34103;BME280;20381;54.498;18.206;2023-03-17T11:49:20;99967.95;;;13.52;45.07
34103;BME280;20381;54.498;18.206;2023-03-17T11:52:10;99971.59;;;13.33;44.30
34103;BME280;20381;54.498;18.206;2023-03-17T11:54:56;99973.96;;;12.71;42.71
34103;BME280;20381;54.498;18.206;2023-03-17T11:57:41;99972.66;;;12.71;43.25
34103;BME280;20381;54.498;18.206;2023-03-17T12:00:45;99981.53;;;12.60;41.68
34103;BME280;20381;54.498;18.206;2023-03-17T12:03:24;99983.33;;;12.93;42.06
34103;BME280;20381;54.498;18.206;2023-03-17T12:05:59;99980.48;;;13.13;42.33
34103;BME280;20381;54.498;18.206;2023-03-17T12:08:35;99976.01;;;12.99;41.36
34103;BME280;20381;54.498;18.206;2023-03-17T12:11:15;99957.06;;;13.10;41.40
34103;BME280;20381;54.498;18.206;2023-03-17T12:13:53;99967.81;;;13.21;41.47
34103;BME280;20381;54.498;18.206;2023-03-17T12:16:46;99957.25;;;12.83;40.46
34103;BME280;20381;54.498;18.206;2023-03-17T12:19:24;99948.53;;;12.14;40.08
34103;BME280;20381;54.498;18.206;2023-03-17T12:22:17;99947.52;;;11.63;39.46
34103;BME280;20381;54.498;18.206;2023-03-17T12:25:03;99951.55;;;11.05;39.19
34103;BME280;20381;54.498;18.206;2023-03-17T12:28:02;99949.92;;;10.73;39.05
34103;BME280;20381;54.498;18.206;2023-03-17T12:33:56;99950.98;;;10.38;39.08
34103;BME280;20381;54.498;18.206;2023-03-17T12:36:38;99934.78;;;10.71;39.36
34103;BME280;20381;54.498;18.206;2023-03-17T12:39:10;99927.80;;;11.56;39.13
34103;BME280;20381;54.498;18.206;2023-03-17T12:42:00;99930.11;;;12.42;39.45
34103;BME280;20381;54.498;18.206;2023-03-17T12:47:41;99907.03;;;12.33;38.08
34103;BME280;20381;54.498;18.206;2023-03-17T12:53:29;99917.02;;;10.69;37.59
34103;BME280;20381;54.498;18.206;2023-03-17T12:56:24;99897.41;;;10.09;38.09
34103;BME280;20381;54.498;18.206;2023-03-17T12:59:02;99897.19;;;9.93;37.95
34103;BME280;20381;54.498;18.206;2023-03-17T13:01:38;99886.87;;;9.80;37.81
34103;BME280;20381;54.498;18.206;2023-03-17T13:04:16;99881.38;;;9.66;37.63
34103;BME280;20381;54.498;18.206;2023-03-17T13:26:19;99868.53;;;9.29;37.38
34103;BME280;20381;54.498;18.206;2023-03-17T13:28:49;99863.56;;;9.23;37.27
34103;BME280;20381;54.498;18.206;2023-03-17T13:31:30;99861.08;;;9.19;37.57
34103;BME280;20381;54.498;18.206;2023-03-17T13:37:00;99848.98;;;9.29;37.71
34103;BME280;20381;54.498;18.206;2023-03-17T13:40:06;99864.31;;;9.14;37.52
34103;BME280;20381;54.498;18.206;2023-03-17T13:43:20;99868.59;;;9.05;37.59
34103;BME280;20381;54.498;18.206;2023-03-17T13:45:46;99835.86;;;8.98;37.89
34103;BME280;20381;54.498;18.206;2023-03-17T13:51:02;99841.44;;;8.89;37.62
34103;BME280;20381;54.498;18.206;2023-03-17T13:53:41;99840.93;;;8.91;37.60
34103;BME280;20381;54.498;18.206;2023-03-17T13:57:20;99844.95;;;8.88;37.54
34103;BME280;20381;54.498;18.206;2023-03-17T13:59:12;99832.03;;;8.85;37.87
34103;BME280;20381;54.498;18.206;2023-03-17T14:01:55;99842.23;;;8.91;37.91
34103;BME280;20381;54.498;18.206;2023-03-17T14:04:31;99869.05;;;8.93;37.64
34103;BME280;20381;54.498;18.206;2023-03-17T14:06:58;99837.36;;;8.82;37.47
34103;BME280;20381;54.498;18.206;2023-03-17T14:09:42;99838.52;;;8.74;37.44
34103;BME280;20381;54.498;18.206;2023-03-17T14:15:02;99837.95;;;8.66;37.65
34103;BME280;20381;54.498;18.206;2023-03-17T14:17:43;99852.65;;;8.67;37.59